Results: 2018 Fyn ITU Duathlon World Championships | 50-54 Female AG Sprint
Fyn, Denmark • 08 Jul, 2018
Pos First Name Last Name YOB Country Start
Num
Time Run T1 Bike T2 Run
1 Cynthia Abrami 1968 USA 2598 01:08:56 00:20:18 00:02:01 00:35:16 00:02:10 00:09:11
2 Cathy Dawson 1967 GBR 2590 01:09:02 00:20:53 00:01:40 00:34:59 00:02:04 00:09:26
3 Karen Murphy 1968 GBR 2596 01:09:27 00:20:33 00:01:46 00:35:29 00:02:19 00:09:20
4 Anke Lakies 1967 GER 2597 01:10:01 00:21:56 00:01:40 00:34:13 00:02:11 00:10:01
5 Silvia Adriana Dominguez Cardenas 1965 MEX 2606 01:12:43 00:21:55 00:02:05 00:35:48 00:02:28 00:10:27
6 Anne Gautier Maurel 1966 FRA 2587 01:12:51 00:22:29 00:01:46 00:35:35 00:02:17 00:10:44
7 Jane Beech 1966 GBR 2588 01:14:18 00:22:55 00:01:38 00:36:28 00:02:23 00:10:54
8 Valerie Martin 1966 GBR 2593 01:15:31 00:23:29 00:01:52 00:36:39 00:02:23 00:11:08
9 Bernadette Loontjens 1964 CAN 2605 01:17:32 00:25:10 00:02:05 00:36:09 00:02:30 00:11:38
10 Angie Hughes 1966 GBR 2591 01:17:38 00:25:26 00:01:56 00:36:04 00:02:39 00:11:33
11 Jane Bowles 1967 GBR 2589 01:17:56 00:25:14 00:02:14 00:36:04 00:02:50 00:11:34
12 Jess Mcmorris 1965 GBR 2595 01:18:03 00:24:52 00:02:01 00:36:37 00:02:43 00:11:50
13 Lotte Halling 1964 DEN 2586 01:18:11 00:24:40 00:02:08 00:37:26 00:02:38 00:11:19
14 Mandy Mcgonigle 1964 GBR 2594 01:18:52 00:24:21 00:01:58 00:37:59 00:02:43 00:11:51
15 Gabrielle Johnson 1968 GBR 2592 01:20:28 00:25:16 00:02:27 00:37:07 00:03:05 00:12:33
16 Rosane Mussi Da Silva Marques 1964 BRA 2604 01:21:02 00:25:46 00:02:20 00:37:13 00:03:14 00:12:29
17 Kristelle Harrington 1966 USA 2601 01:22:06 00:24:15 00:01:53 00:42:01 00:02:28 00:11:29
18 Liz Robinson 1966 AUS 2603 01:24:16 00:26:25 00:02:34 00:40:35 00:02:51 00:11:51
19 Tanya Appuhn 1967 USA 2599 01:26:30 00:28:45 00:02:12 00:39:13 00:02:52 00:13:28
20 Dana Harris 1966 AUS 2602 01:28:19 00:28:26 00:02:21 00:40:16 00:03:30 00:13:46
21 Melisa Dorrill 1967 USA 2600 01:33:53 00:28:27 00:02:37 00:45:43 00:03:39 00:13:27
Program notes:

Technical Delegate: Duncan Hough/GBR. Head Referee: Ulf Schuetze/CAN.
Competition Jury: Duncan Hough/GBR, Brian Hinton/AUS, Morten Fenger/DEN.
Distances: Run 5.5km (3 laps), Bike 19.9km (1 lap), Run 2.5km (1 lap)
Air temperature: 16.6C; Humidity: 52.7%